sensor_id;sensor_type;location;lat;lon;timestamp;temperature;humidity
51567;DHT22;37657;53.182;5.638;2024-03-02T00:02:06;8.60;99.90
51567;DHT22;37657;53.182;5.638;2024-03-02T00:04:35;8.60;99.90
51567;DHT22;37657;53.182;5.638;2024-03-02T00:07:04;8.60;99.90
51567;DHT22;37657;53.182;5.638;2024-03-02T00:09:29;8.50;99.90
51567;DHT22;37657;53.182;5.638;2024-03-02T00:11:55;8.50;99.90
51567;DHT22;37657;53.182;5.638;2024-03-02T00:14:22;8.50;99.90
51567;DHT22;37657;53.182;5.638;2024-03-02T00:16:50;8.50;99.90
51567;DHT22;37657;53.182;5.638;2024-03-02T00:19:17;8.50;99.90
51567;DHT22;37657;53.182;5.638;2024-03-02T00:21:42;8.50;99.90
51567;DHT22;37657;53.182;5.638;2024-03-02T00:24:21;8.50;99.90
51567;DHT22;37657;53.182;5.638;2024-03-02T00:26:47;8.50;99.90
51567;DHT22;37657;53.182;5.638;2024-03-02T00:29:16;8.50;99.90
51567;DHT22;37657;53.182;5.638;2024-03-02T00:31:43;8.40;99.90
51567;DHT22;37657;53.182;5.638;2024-03-02T00:34:11;8.40;99.90
51567;DHT22;37657;53.182;5.638;2024-03-02T00:36:38;8.40;99.90
51567;DHT22;37657;53.182;5.638;2024-03-02T00:39:04;8.40;99.90
51567;DHT22;37657;53.182;5.638;2024-03-02T00:41:33;8.30;99.90
51567;DHT22;37657;53.182;5.638;2024-03-02T00:44:04;8.30;99.90
51567;DHT22;37657;53.182;5.638;2024-03-02T00:46:38;8.30;99.90
51567;DHT22;37657;53.182;5.638;2024-03-02T00:51:36;8.20;99.90
51567;DHT22;37657;53.182;5.638;2024-03-02T00:54:04;8.20;99.90
51567;DHT22;37657;53.182;5.638;2024-03-02T00:56:31;8.10;99.90
51567;DHT22;37657;53.182;5.638;2024-03-02T00:58:57;8.20;99.90
51567;DHT22;37657;53.182;5.638;2024-03-02T01:01:25;8.10;99.90
51567;DHT22;37657;53.182;5.638;2024-03-02T01:03:51;8.10;99.90
51567;DHT22;37657;53.182;5.638;2024-03-02T01:06:17;8.10;99.90
51567;DHT22;37657;53.182;5.638;2024-03-02T01:08:43;8.10;99.90
51567;DHT22;37657;53.182;5.638;2024-03-02T01:11:09;8.10;99.90
51567;DHT22;37657;53.182;5.638;2024-03-02T01:13:34;8.10;99.90
51567;DHT22;37657;53.182;5.638;2024-03-02T01:16:00;8.10;99.90
51567;DHT22;37657;53.182;5.638;2024-03-02T01:18:26;8.10;99.90
51567;DHT22;37657;53.182;5.638;2024-03-02T01:20:52;8.20;99.90
51567;DHT22;37657;53.182;5.638;2024-03-02T01:23:20;8.00;99.90
51567;DHT22;37657;53.182;5.638;2024-03-02T01:25:47;8.30;99.90
51567;DHT22;37657;53.182;5.638;2024-03-02T01:28:13;8.30;99.90
51567;DHT22;37657;53.182;5.638;2024-03-02T01:30:42;8.40;99.90
51567;DHT22;37657;53.182;5.638;2024-03-02T01:33:08;8.40;99.90
51567;DHT22;37657;53.182;5.638;2024-03-02T01:35:33;8.50;99.90
51567;DHT22;37657;53.182;5.638;2024-03-02T01:38:00;8.50;99.90
51567;DHT22;37657;53.182;5.638;2024-03-02T01:40:26;8.60;99.90
51567;DHT22;37657;53.182;5.638;2024-03-02T01:42:53;8.60;99.90
51567;DHT22;37657;53.182;5.638;2024-03-02T01:45:23;8.60;99.90
51567;DHT22;37657;53.182;5.638;2024-03-02T01:47:49;8.70;99.90
51567;DHT22;37657;53.182;5.638;2024-03-02T01:50:23;8.80;99.90
51567;DHT22;37657;53.182;5.638;2024-03-02T01:52:49;8.80;99.90
51567;DHT22;37657;53.182;5.638;2024-03-02T01:55:15;8.80;99.90
51567;DHT22;37657;53.182;5.638;2024-03-02T01:57:41;8.80;99.90
51567;DHT22;37657;53.182;5.638;2024-03-02T02:00:07;8.90;99.90
51567;DHT22;37657;53.182;5.638;2024-03-02T02:02:32;8.90;99.90
51567;DHT22;37657;53.182;5.638;2024-03-02T02:04:58;8.90;99.90
51567;DHT22;37657;53.182;5.638;2024-03-02T02:07:24;8.90;99.90
51567;DHT22;37657;53.182;5.638;2024-03-02T02:09:49;8.90;99.90
51567;DHT22;37657;53.182;5.638;2024-03-02T02:12:15;8.90;99.90
51567;DHT22;37657;53.182;5.638;2024-03-02T02:14:47;8.90;99.90
51567;DHT22;37657;53.182;5.638;2024-03-02T02:17:14;8.90;99.90
51567;DHT22;37657;53.182;5.638;2024-03-02T02:19:41;9.00;99.90
51567;DHT22;37657;53.182;5.638;2024-03-02T02:22:06;9.00;99.90
51567;DHT22;37657;53.182;5.638;2024-03-02T02:24:32;9.00;99.90
51567;DHT22;37657;53.182;5.638;2024-03-02T02:26:57;8.90;99.90
51567;DHT22;37657;53.182;5.638;2024-03-02T02:29:23;9.00;99.90
51567;DHT22;37657;53.182;5.638;2024-03-02T02:31:49;9.00;99.90
51567;DHT22;37657;53.182;5.638;2024-03-02T02:34:15;8.90;99.90
51567;DHT22;37657;53.182;5.638;2024-03-02T02:36:41;8.90;99.90
51567;DHT22;37657;53.182;5.638;2024-03-02T02:39:11;8.90;99.90
51567;DHT22;37657;53.182;5.638;2024-03-02T02:41:39;8.90;99.90
51567;DHT22;37657;53.182;5.638;2024-03-02T02:44:05;8.80;99.90
51567;DHT22;37657;53.182;5.638;2024-03-02T02:46:34;8.80;99.90
51567;DHT22;37657;53.182;5.638;2024-03-02T02:49:00;8.80;99.90
51567;DHT22;37657;53.182;5.638;2024-03-02T02:51:26;8.80;99.90
51567;DHT22;37657;53.182;5.638;2024-03-02T02:53:51;8.80;99.90
51567;DHT22;37657;53.182;5.638;2024-03-02T02:56:17;8.70;99.90
51567;DHT22;37657;53.182;5.638;2024-03-02T02:58:43;8.70;99.90
51567;DHT22;37657;53.182;5.638;2024-03-02T03:01:08;8.70;99.90
51567;DHT22;37657;53.182;5.638;2024-03-02T03:03:34;8.70;99.90
51567;DHT22;37657;53.182;5.638;2024-03-02T03:06:00;8.70;99.90
51567;DHT22;37657;53.182;5.638;2024-03-02T03:08:25;8.60;99.90
51567;DHT22;37657;53.182;5.638;2024-03-02T03:10:51;8.60;99.90
51567;DHT22;37657;53.182;5.638;2024-03-02T03:13:16;8.60;99.90
51567;DHT22;37657;53.182;5.638;2024-03-02T03:15:42;8.60;99.90
51567;DHT22;37657;53.182;5.638;2024-03-02T03:18:08;8.60;99.90
51567;DHT22;37657;53.182;5.638;2024-03-02T03:20:35;8.50;99.90
51567;DHT22;37657;53.182;5.638;2024-03-02T03:23:01;8.50;99.90
51567;DHT22;37657;53.182;5.638;2024-03-02T03:25:27;8.50;99.90
51567;DHT22;37657;53.182;5.638;2024-03-02T03:27:53;8.60;99.90
51567;DHT22;37657;53.182;5.638;2024-03-02T03:30:18;8.50;99.90
51567;DHT22;37657;53.182;5.638;2024-03-02T03:32:44;8.50;99.90
51567;DHT22;37657;53.182;5.638;2024-03-02T03:35:10;8.40;99.90
51567;DHT22;37657;53.182;5.638;2024-03-02T03:37:37;8.50;99.90
51567;DHT22;37657;53.182;5.638;2024-03-02T03:40:03;8.50;99.90
51567;DHT22;37657;53.182;5.638;2024-03-02T03:42:35;8.40;99.90
51567;DHT22;37657;53.182;5.638;2024-03-02T03:45:02;8.40;99.90
51567;DHT22;37657;53.182;5.638;2024-03-02T03:47:27;8.50;99.90
51567;DHT22;37657;53.182;5.638;2024-03-02T03:49:53;8.40;99.90
51567;DHT22;37657;53.182;5.638;2024-03-02T03:52:18;8.40;99.90
51567;DHT22;37657;53.182;5.638;2024-03-02T03:54:44;8.30;99.90
51567;DHT22;37657;53.182;5.638;2024-03-02T03:57:10;8.30;99.90
51567;DHT22;37657;53.182;5.638;2024-03-02T03:59:35;8.20;99.90
51567;DHT22;37657;53.182;5.638;2024-03-02T04:02:03;8.30;99.90
51567;DHT22;37657;53.182;5.638;2024-03-02T04:04:29;8.10;99.90
51567;DHT22;37657;53.182;5.638;2024-03-02T04:06:55;8.10;99.90
51567;DHT22;37657;53.182;5.638;2024-03-02T04:09:20;8.00;99.90
51567;DHT22;37657;53.182;5.638;2024-03-02T04:11:46;8.00;99.90
51567;DHT22;37657;53.182;5.638;2024-03-02T04:14:11;8.50;99.90
51567;DHT22;37657;53.182;5.638;2024-03-02T04:16:38;7.80;99.90
51567;DHT22;37657;53.182;5.638;2024-03-02T04:19:04;7.90;99.90
51567;DHT22;37657;53.182;5.638;2024-03-02T04:21:30;8.30;99.90
51567;DHT22;37657;53.182;5.638;2024-03-02T04:23:56;7.90;99.90
51567;DHT22;37657;53.182;5.638;2024-03-02T04:26:24;7.60;99.90
51567;DHT22;37657;53.182;5.638;2024-03-02T04:28:51;7.70;99.90
51567;DHT22;37657;53.182;5.638;2024-03-02T04:31:17;7.60;99.90
51567;DHT22;37657;53.182;5.638;2024-03-02T04:33:42;7.60;99.90
51567;DHT22;37657;53.182;5.638;2024-03-02T04:36:08;7.60;99.90
51567;DHT22;37657;53.182;5.638;2024-03-02T04:38:35;7.60;99.90
51567;DHT22;37657;53.182;5.638;2024-03-02T04:41:01;7.50;99.90
51567;DHT22;37657;53.182;5.638;2024-03-02T04:43:26;8.00;99.90
51567;DHT22;37657;53.182;5.638;2024-03-02T04:45:52;7.50;99.90
51567;DHT22;37657;53.182;5.638;2024-03-02T04:48:18;7.50;99.90
51567;DHT22;37657;53.182;5.638;2024-03-02T04:50:44;7.50;99.90
51567;DHT22;37657;53.182;5.638;2024-03-02T04:53:10;7.50;99.90
51567;DHT22;37657;53.182;5.638;2024-03-02T04:55:35;7.40;99.90
51567;DHT22;37657;53.182;5.638;2024-03-02T04:58:07;7.40;99.90
51567;DHT22;37657;53.182;5.638;2024-03-02T05:00:33;7.30;99.90
51567;DHT22;37657;53.182;5.638;2024-03-02T05:02:59;7.30;99.90
51567;DHT22;37657;53.182;5.638;2024-03-02T05:05:25;7.20;99.90
51567;DHT22;37657;53.182;5.638;2024-03-02T05:07:52;7.10;99.90
51567;DHT22;37657;53.182;5.638;2024-03-02T05:10:18;7.10;99.90
51567;DHT22;37657;53.182;5.638;2024-03-02T05:12:43;7.20;99.90
51567;DHT22;37657;53.182;5.638;2024-03-02T05:15:10;6.90;99.90
51567;DHT22;37657;53.182;5.638;2024-03-02T05:17:42;6.80;99.90
51567;DHT22;37657;53.182;5.638;2024-03-02T05:20:11;6.90;99.90
51567;DHT22;37657;53.182;5.638;2024-03-02T05:22:37;6.80;99.90
51567;DHT22;37657;53.182;5.638;2024-03-02T05:25:04;6.80;99.90
51567;DHT22;37657;53.182;5.638;2024-03-02T05:27:30;6.70;99.90
51567;DHT22;37657;53.182;5.638;2024-03-02T05:29:55;6.60;99.90
51567;DHT22;37657;53.182;5.638;2024-03-02T05:32:21;6.70;99.90
51567;DHT22;37657;53.182;5.638;2024-03-02T05:34:46;6.60;99.90
51567;DHT22;37657;53.182;5.638;2024-03-02T05:37:12;6.60;99.90
51567;DHT22;37657;53.182;5.638;2024-03-02T05:39:38;6.60;99.90
51567;DHT22;37657;53.182;5.638;2024-03-02T05:42:04;6.50;99.90
51567;DHT22;37657;53.182;5.638;2024-03-02T05:44:29;6.40;99.90
51567;DHT22;37657;53.182;5.638;2024-03-02T05:46:55;6.40;99.90
51567;DHT22;37657;53.182;5.638;2024-03-02T05:49:21;6.40;99.90
51567;DHT22;37657;53.182;5.638;2024-03-02T05:51:47;6.40;99.90
51567;DHT22;37657;53.182;5.638;2024-03-02T05:54:13;6.20;99.90
51567;DHT22;37657;53.182;5.638;2024-03-02T05:56:38;6.10;99.90
51567;DHT22;37657;53.182;5.638;2024-03-02T05:59:04;6.30;99.90
51567;DHT22;37657;53.182;5.638;2024-03-02T06:01:43;6.00;99.90
51567;DHT22;37657;53.182;5.638;2024-03-02T06:04:13;6.00;99.90
51567;DHT22;37657;53.182;5.638;2024-03-02T06:06:40;5.90;99.90
51567;DHT22;37657;53.182;5.638;2024-03-02T06:09:06;5.80;99.90
51567;DHT22;37657;53.182;5.638;2024-03-02T06:11:34;5.90;99.90
51567;DHT22;37657;53.182;5.638;2024-03-02T06:13:59;5.80;99.90
51567;DHT22;37657;53.182;5.638;2024-03-02T06:16:25;5.80;99.90
51567;DHT22;37657;53.182;5.638;2024-03-02T06:18:50;5.90;99.90
51567;DHT22;37657;53.182;5.638;2024-03-02T06:21:16;5.80;99.90
51567;DHT22;37657;53.182;5.638;2024-03-02T06:23:44;5.80;99.90
51567;DHT22;37657;53.182;5.638;2024-03-02T06:26:09;5.90;99.90
51567;DHT22;37657;53.182;5.638;2024-03-02T06:28:35;5.80;99.90
51567;DHT22;37657;53.182;5.638;2024-03-02T06:31:01;5.90;99.90
51567;DHT22;37657;53.182;5.638;2024-03-02T06:33:27;6.00;99.90
51567;DHT22;37657;53.182;5.638;2024-03-02T06:35:54;6.20;99.90
51567;DHT22;37657;53.182;5.638;2024-03-02T06:38:19;6.20;99.90
51567;DHT22;37657;53.182;5.638;2024-03-02T06:40:45;6.10;99.90
51567;DHT22;37657;53.182;5.638;2024-03-02T06:43:11;6.20;99.90
51567;DHT22;37657;53.182;5.638;2024-03-02T06:45:36;6.80;99.90
51567;DHT22;37657;53.182;5.638;2024-03-02T06:48:02;6.30;99.90
51567;DHT22;37657;53.182;5.638;2024-03-02T06:50:27;6.40;99.90
51567;DHT22;37657;53.182;5.638;2024-03-02T06:52:54;6.20;99.90
51567;DHT22;37657;53.182;5.638;2024-03-02T06:55:21;6.20;99.90
51567;DHT22;37657;53.182;5.638;2024-03-02T06:57:47;6.30;99.90
51567;DHT22;37657;53.182;5.638;2024-03-02T07:00:13;6.30;99.90
51567;DHT22;37657;53.182;5.638;2024-03-02T07:02:39;6.40;99.90
51567;DHT22;37657;53.182;5.638;2024-03-02T07:05:07;6.40;99.90
51567;DHT22;37657;53.182;5.638;2024-03-02T07:07:34;6.90;99.90
51567;DHT22;37657;53.182;5.638;2024-03-02T07:10:00;6.50;99.90
51567;DHT22;37657;53.182;5.638;2024-03-02T07:12:26;6.50;99.90
51567;DHT22;37657;53.182;5.638;2024-03-02T07:14:52;6.40;99.90
51567;DHT22;37657;53.182;5.638;2024-03-02T07:17:30;6.40;99.90
51567;DHT22;37657;53.182;5.638;2024-03-02T07:19:56;6.50;99.90
51567;DHT22;37657;53.182;5.638;2024-03-02T07:22:22;6.60;99.90
51567;DHT22;37657;53.182;5.638;2024-03-02T07:24:48;6.60;99.90
51567;DHT22;37657;53.182;5.638;2024-03-02T07:27:15;6.60;99.90
51567;DHT22;37657;53.182;5.638;2024-03-02T07:29:41;6.70;99.90
51567;DHT22;37657;53.182;5.638;2024-03-02T07:32:08;6.70;99.90
51567;DHT22;37657;53.182;5.638;2024-03-02T07:34:34;6.80;99.90
51567;DHT22;37657;53.182;5.638;2024-03-02T07:37:00;7.00;99.90
51567;DHT22;37657;53.182;5.638;2024-03-02T07:39:26;6.90;99.90
51567;DHT22;37657;53.182;5.638;2024-03-02T07:41:52;7.50;99.90
51567;DHT22;37657;53.182;5.638;2024-03-02T07:44:17;7.00;99.90
51567;DHT22;37657;53.182;5.638;2024-03-02T07:46:45;7.10;99.90
51567;DHT22;37657;53.182;5.638;2024-03-02T07:49:18;7.20;99.90
51567;DHT22;37657;53.182;5.638;2024-03-02T07:51:44;7.30;99.90
51567;DHT22;37657;53.182;5.638;2024-03-02T07:54:10;7.50;99.90
51567;DHT22;37657;53.182;5.638;2024-03-02T07:56:36;7.40;99.90
51567;DHT22;37657;53.182;5.638;2024-03-02T07:59:02;7.40;99.90
51567;DHT22;37657;53.182;5.638;2024-03-02T08:01:28;7.60;99.90
51567;DHT22;37657;53.182;5.638;2024-03-02T08:03:58;7.60;99.90
51567;DHT22;37657;53.182;5.638;2024-03-02T08:06:27;7.60;99.90
51567;DHT22;37657;53.182;5.638;2024-03-02T08:08:54;7.80;99.90
51567;DHT22;37657;53.182;5.638;2024-03-02T08:11:20;7.80;99.90
51567;DHT22;37657;53.182;5.638;2024-03-02T08:13:46;8.00;99.90
51567;DHT22;37657;53.182;5.638;2024-03-02T08:16:12;8.00;99.90
51567;DHT22;37657;53.182;5.638;2024-03-02T08:18:37;8.10;99.90
51567;DHT22;37657;53.182;5.638;2024-03-02T08:21:03;8.10;99.90
51567;DHT22;37657;53.182;5.638;2024-03-02T08:23:29;8.20;99.90
51567;DHT22;37657;53.182;5.638;2024-03-02T08:25:55;8.20;99.90
51567;DHT22;37657;53.182;5.638;2024-03-02T08:28:21;8.30;99.90
51567;DHT22;37657;53.182;5.638;2024-03-02T08:30:47;8.40;99.90
51567;DHT22;37657;53.182;5.638;2024-03-02T08:33:12;8.50;99.90
51567;DHT22;37657;53.182;5.638;2024-03-02T08:35:38;8.60;99.90
51567;DHT22;37657;53.182;5.638;2024-03-02T08:38:04;8.60;99.90
51567;DHT22;37657;53.182;5.638;2024-03-02T08:40:30;8.60;99.90
51567;DHT22;37657;53.182;5.638;2024-03-02T08:42:55;8.70;99.90
51567;DHT22;37657;53.182;5.638;2024-03-02T08:45:21;8.70;99.90
51567;DHT22;37657;53.182;5.638;2024-03-02T08:47:47;8.80;99.90
51567;DHT22;37657;53.182;5.638;2024-03-02T08:50:13;8.90;99.90
51567;DHT22;37657;53.182;5.638;2024-03-02T08:52:39;9.00;99.90
51567;DHT22;37657;53.182;5.638;2024-03-02T08:55:05;9.00;99.90
51567;DHT22;37657;53.182;5.638;2024-03-02T08:57:31;9.10;99.90
51567;DHT22;37657;53.182;5.638;2024-03-02T08:59:57;9.20;99.90
51567;DHT22;37657;53.182;5.638;2024-03-02T09:02:23;9.20;99.90
51567;DHT22;37657;53.182;5.638;2024-03-02T09:04:49;9.10;99.90
51567;DHT22;37657;53.182;5.638;2024-03-02T09:07:15;9.00;99.90
51567;DHT22;37657;53.182;5.638;2024-03-02T09:09:40;9.00;99.90
51567;DHT22;37657;53.182;5.638;2024-03-02T09:12:06;8.90;99.90
51567;DHT22;37657;53.182;5.638;2024-03-02T09:14:33;8.90;99.90
51567;DHT22;37657;53.182;5.638;2024-03-02T09:16:58;8.90;99.90
51567;DHT22;37657;53.182;5.638;2024-03-02T09:19:24;8.90;99.90
51567;DHT22;37657;53.182;5.638;2024-03-02T09:21:49;9.00;99.90
51567;DHT22;37657;53.182;5.638;2024-03-02T09:24:16;9.00;99.90
51567;DHT22;37657;53.182;5.638;2024-03-02T09:26:41;9.00;99.90
51567;DHT22;37657;53.182;5.638;2024-03-02T09:29:07;9.10;99.90
51567;DHT22;37657;53.182;5.638;2024-03-02T09:31:38;9.10;99.90
51567;DHT22;37657;53.182;5.638;2024-03-02T09:34:04;9.20;99.90
51567;DHT22;37657;53.182;5.638;2024-03-02T09:36:32;9.20;99.90
51567;DHT22;37657;53.182;5.638;2024-03-02T09:38:58;9.20;99.90
51567;DHT22;37657;53.182;5.638;2024-03-02T09:41:24;9.20;99.90
51567;DHT22;37657;53.182;5.638;2024-03-02T09:43:50;9.20;99.90
51567;DHT22;37657;53.182;5.638;2024-03-02T09:46:16;9.30;99.90
51567;DHT22;37657;53.182;5.638;2024-03-02T09:48:44;9.30;99.90
51567;DHT22;37657;53.182;5.638;2024-03-02T09:51:10;9.40;99.90
51567;DHT22;37657;53.182;5.638;2024-03-02T09:53:37;9.40;99.90
51567;DHT22;37657;53.182;5.638;2024-03-02T09:56:03;9.40;99.90
51567;DHT22;37657;53.182;5.638;2024-03-02T09:58:30;9.50;99.90
51567;DHT22;37657;53.182;5.638;2024-03-02T10:00:56;9.50;99.90
51567;DHT22;37657;53.182;5.638;2024-03-02T10:03:23;9.50;99.90
51567;DHT22;37657;53.182;5.638;2024-03-02T10:05:52;9.40;99.90
51567;DHT22;37657;53.182;5.638;2024-03-02T10:08:18;9.50;99.90
51567;DHT22;37657;53.182;5.638;2024-03-02T10:10:43;9.60;99.90
51567;DHT22;37657;53.182;5.638;2024-03-02T10:13:10;9.70;99.90
51567;DHT22;37657;53.182;5.638;2024-03-02T10:15:37;9.70;99.90
51567;DHT22;37657;53.182;5.638;2024-03-02T10:18:13;9.70;99.90
51567;DHT22;37657;53.182;5.638;2024-03-02T10:20:40;9.80;99.90
51567;DHT22;37657;53.182;5.638;2024-03-02T10:23:13;9.80;99.90
51567;DHT22;37657;53.182;5.638;2024-03-02T10:25:40;9.80;99.90
51567;DHT22;37657;53.182;5.638;2024-03-02T10:28:05;9.80;99.90
51567;DHT22;37657;53.182;5.638;2024-03-02T10:30:32;9.80;99.90
51567;DHT22;37657;53.182;5.638;2024-03-02T10:32:58;9.80;99.90
51567;DHT22;37657;53.182;5.638;2024-03-02T10:35:24;9.80;99.90
51567;DHT22;37657;53.182;5.638;2024-03-02T10:37:52;9.90;99.90
51567;DHT22;37657;53.182;5.638;2024-03-02T10:40:18;9.90;99.90
51567;DHT22;37657;53.182;5.638;2024-03-02T10:42:47;10.00;99.90
51567;DHT22;37657;53.182;5.638;2024-03-02T10:45:15;10.00;99.90
51567;DHT22;37657;53.182;5.638;2024-03-02T10:47:42;10.00;99.90
51567;DHT22;37657;53.182;5.638;2024-03-02T10:50:08;10.00;99.90
51567;DHT22;37657;53.182;5.638;2024-03-02T10:52:35;10.10;99.90
51567;DHT22;37657;53.182;5.638;2024-03-02T10:55:01;10.10;99.90
51567;DHT22;37657;53.182;5.638;2024-03-02T10:57:27;10.10;99.90
51567;DHT22;37657;53.182;5.638;2024-03-02T11:00:02;10.10;99.90
51567;DHT22;37657;53.182;5.638;2024-03-02T11:02:30;10.10;99.90
51567;DHT22;37657;53.182;5.638;2024-03-02T11:04:56;10.10;99.90
51567;DHT22;37657;53.182;5.638;2024-03-02T11:07:25;10.10;99.90
51567;DHT22;37657;53.182;5.638;2024-03-02T11:10:01;10.20;99.90
51567;DHT22;37657;53.182;5.638;2024-03-02T11:12:44;10.20;99.90
51567;DHT22;37657;53.182;5.638;2024-03-02T11:15:18;10.20;99.90
51567;DHT22;37657;53.182;5.638;2024-03-02T11:17:46;10.20;99.90
51567;DHT22;37657;53.182;5.638;2024-03-02T11:20:13;10.20;99.90
51567;DHT22;37657;53.182;5.638;2024-03-02T11:22:40;10.20;99.90
51567;DHT22;37657;53.182;5.638;2024-03-02T11:25:23;10.30;99.90
51567;DHT22;37657;53.182;5.638;2024-03-02T11:33:06;10.40;99.90
51567;DHT22;37657;53.182;5.638;2024-03-02T11:35:35;10.50;99.90
51567;DHT22;37657;53.182;5.638;2024-03-02T11:38:01;10.50;99.90
51567;DHT22;37657;53.182;5.638;2024-03-02T11:40:29;10.40;99.90
51567;DHT22;37657;53.182;5.638;2024-03-02T11:42:55;10.50;99.90
51567;DHT22;37657;53.182;5.638;2024-03-02T11:45:25;10.50;99.90
51567;DHT22;37657;53.182;5.638;2024-03-02T11:47:54;10.50;99.90
51567;DHT22;37657;53.182;5.638;2024-03-02T11:50:34;10.60;99.90
51567;DHT22;37657;53.182;5.638;2024-03-02T11:53:05;10.60;99.90
51567;DHT22;37657;53.182;5.638;2024-03-02T11:55:37;10.60;99.90
51567;DHT22;37657;53.182;5.638;2024-03-02T11:58:07;11.00;99.90
51567;DHT22;37657;53.182;5.638;2024-03-02T12:00:32;10.70;99.90
51567;DHT22;37657;53.182;5.638;2024-03-02T12:03:09;10.60;99.90
51567;DHT22;37657;53.182;5.638;2024-03-02T12:05:37;10.60;99.90
51567;DHT22;37657;53.182;5.638;2024-03-02T12:08:05;10.70;99.90
51567;DHT22;37657;53.182;5.638;2024-03-02T12:10:32;10.80;99.90
51567;DHT22;37657;53.182;5.638;2024-03-02T12:12:59;10.80;99.90
51567;DHT22;37657;53.182;5.638;2024-03-02T12:15:30;10.80;99.90
51567;DHT22;37657;53.182;5.638;2024-03-02T12:18:01;10.90;99.90
51567;DHT22;37657;53.182;5.638;2024-03-02T12:20:31;10.90;99.90
51567;DHT22;37657;53.182;5.638;2024-03-02T12:23:02;10.90;99.90
51567;DHT22;37657;53.182;5.638;2024-03-02T12:25:28;11.00;99.90
51567;DHT22;37657;53.182;5.638;2024-03-02T12:27:57;11.00;99.90
51567;DHT22;37657;53.182;5.638;2024-03-02T12:30:23;11.00;99.90
51567;DHT22;37657;53.182;5.638;2024-03-02T12:32:50;11.00;99.90
51567;DHT22;37657;53.182;5.638;2024-03-02T12:35:18;10.90;99.90
51567;DHT22;37657;53.182;5.638;2024-03-02T12:37:48;11.10;99.90
51567;DHT22;37657;53.182;5.638;2024-03-02T12:40:17;11.00;99.90
51567;DHT22;37657;53.182;5.638;2024-03-02T12:42:44;11.10;99.90
51567;DHT22;37657;53.182;5.638;2024-03-02T12:45:10;11.10;99.90
51567;DHT22;37657;53.182;5.638;2024-03-02T12:47:37;11.10;99.90
51567;DHT22;37657;53.182;5.638;2024-03-02T12:50:04;11.20;99.90
51567;DHT22;37657;53.182;5.638;2024-03-02T12:52:30;11.20;99.90
51567;DHT22;37657;53.182;5.638;2024-03-02T12:55:00;11.30;99.90
51567;DHT22;37657;53.182;5.638;2024-03-02T12:57:28;11.20;99.90
51567;DHT22;37657;53.182;5.638;2024-03-02T13:00:02;11.30;99.90
51567;DHT22;37657;53.182;5.638;2024-03-02T13:02:35;11.30;99.90
51567;DHT22;37657;53.182;5.638;2024-03-02T13:05:01;11.30;99.90
51567;DHT22;37657;53.182;5.638;2024-03-02T13:07:27;11.30;99.90
51567;DHT22;37657;53.182;5.638;2024-03-02T13:09:54;11.30;99.90
51567;DHT22;37657;53.182;5.638;2024-03-02T13:12:21;11.40;99.90
51567;DHT22;37657;53.182;5.638;2024-03-02T13:14:51;11.40;99.90
51567;DHT22;37657;53.182;5.638;2024-03-02T13:17:20;11.70;99.90
51567;DHT22;37657;53.182;5.638;2024-03-02T13:19:59;11.60;99.90
51567;DHT22;37657;53.182;5.638;2024-03-02T13:22:26;11.60;99.90
51567;DHT22;37657;53.182;5.638;2024-03-02T13:24:55;11.60;99.90
51567;DHT22;37657;53.182;5.638;2024-03-02T13:27:21;11.60;99.90
51567;DHT22;37657;53.182;5.638;2024-03-02T13:29:47;12.10;99.90
51567;DHT22;37657;53.182;5.638;2024-03-02T13:32:13;11.70;99.90
51567;DHT22;37657;53.182;5.638;2024-03-02T13:34:39;11.70;99.90
51567;DHT22;37657;53.182;5.638;2024-03-02T13:37:05;11.70;99.90
51567;DHT22;37657;53.182;5.638;2024-03-02T13:39:31;11.70;99.90
51567;DHT22;37657;53.182;5.638;2024-03-02T13:42:00;11.60;99.90
51567;DHT22;37657;53.182;5.638;2024-03-02T13:44:31;11.70;99.90
51567;DHT22;37657;53.182;5.638;2024-03-02T13:46:57;11.70;99.90
51567;DHT22;37657;53.182;5.638;2024-03-02T13:49:24;11.80;99.90
51567;DHT22;37657;53.182;5.638;2024-03-02T13:51:49;11.80;99.90
51567;DHT22;37657;53.182;5.638;2024-03-02T13:54:15;11.70;99.90
51567;DHT22;37657;53.182;5.638;2024-03-02T13:56:41;11.80;99.90
51567;DHT22;37657;53.182;5.638;2024-03-02T13:59:07;11.70;99.90
51567;DHT22;37657;53.182;5.638;2024-03-02T14:01:33;11.70;99.90
51567;DHT22;37657;53.182;5.638;2024-03-02T14:03:59;11.70;99.90
51567;DHT22;37657;53.182;5.638;2024-03-02T14:06:25;11.70;99.90
51567;DHT22;37657;53.182;5.638;2024-03-02T14:08:52;11.80;99.90
51567;DHT22;37657;53.182;5.638;2024-03-02T14:11:18;11.80;99.90
51567;DHT22;37657;53.182;5.638;2024-03-02T14:13:44;11.80;99.90
51567;DHT22;37657;53.182;5.638;2024-03-02T14:16:15;11.80;99.90
51567;DHT22;37657;53.182;5.638;2024-03-02T14:18:41;11.80;99.90
51567;DHT22;37657;53.182;5.638;2024-03-02T14:21:07;11.80;99.90
51567;DHT22;37657;53.182;5.638;2024-03-02T14:23:33;11.80;99.90
51567;DHT22;37657;53.182;5.638;2024-03-02T14:25:58;11.80;99.90
51567;DHT22;37657;53.182;5.638;2024-03-02T14:28:24;11.80;99.90
51567;DHT22;37657;53.182;5.638;2024-03-02T14:30:50;11.80;99.90
51567;DHT22;37657;53.182;5.638;2024-03-02T14:33:16;11.80;99.90
51567;DHT22;37657;53.182;5.638;2024-03-02T14:35:42;11.80;99.90
51567;DHT22;37657;53.182;5.638;2024-03-02T14:38:08;11.80;99.90
51567;DHT22;37657;53.182;5.638;2024-03-02T14:40:33;11.90;99.90
51567;DHT22;37657;53.182;5.638;2024-03-02T14:42:59;11.80;99.90
51567;DHT22;37657;53.182;5.638;2024-03-02T14:45:25;11.90;99.90
51567;DHT22;37657;53.182;5.638;2024-03-02T14:47:51;11.90;99.90
51567;DHT22;37657;53.182;5.638;2024-03-02T14:50:17;11.90;99.90
51567;DHT22;37657;53.182;5.638;2024-03-02T14:52:44;11.90;99.90
51567;DHT22;37657;53.182;5.638;2024-03-02T14:55:13;12.00;99.90
51567;DHT22;37657;53.182;5.638;2024-03-02T14:57:39;11.90;99.90
51567;DHT22;37657;53.182;5.638;2024-03-02T15:00:05;11.90;99.90
51567;DHT22;37657;53.182;5.638;2024-03-02T15:02:33;12.00;99.90
51567;DHT22;37657;53.182;5.638;2024-03-02T15:04:59;12.00;99.90
51567;DHT22;37657;53.182;5.638;2024-03-02T15:07:25;12.00;99.90
51567;DHT22;37657;53.182;5.638;2024-03-02T15:09:51;12.00;99.90
51567;DHT22;37657;53.182;5.638;2024-03-02T15:12:17;12.00;99.90
51567;DHT22;37657;53.182;5.638;2024-03-02T15:14:43;11.90;99.90
51567;DHT22;37657;53.182;5.638;2024-03-02T15:17:15;11.90;99.90
51567;DHT22;37657;53.182;5.638;2024-03-02T15:19:45;11.80;99.90
51567;DHT22;37657;53.182;5.638;2024-03-02T15:22:11;11.70;99.90
51567;DHT22;37657;53.182;5.638;2024-03-02T15:24:37;11.50;99.90
51567;DHT22;37657;53.182;5.638;2024-03-02T15:27:04;11.50;99.90
51567;DHT22;37657;53.182;5.638;2024-03-02T15:29:34;11.40;99.90
51567;DHT22;37657;53.182;5.638;2024-03-02T15:32:00;11.40;99.90
51567;DHT22;37657;53.182;5.638;2024-03-02T15:34:26;11.40;99.90
51567;DHT22;37657;53.182;5.638;2024-03-02T15:36:52;11.30;99.90
51567;DHT22;37657;53.182;5.638;2024-03-02T15:39:18;11.30;99.90
51567;DHT22;37657;53.182;5.638;2024-03-02T15:41:44;11.20;99.90
51567;DHT22;37657;53.182;5.638;2024-03-02T15:44:10;11.20;99.90
51567;DHT22;37657;53.182;5.638;2024-03-02T15:46:36;11.20;99.90